sensor_id;sensor_type;location;lat;lon;timestamp;P1;durP1;ratioP1;P2;durP2;ratioP2
20657;SDS011;10488;50.846;4.078;2023-07-29T00:01:30;1.63;;;1.20;;
20657;SDS011;10488;50.846;4.078;2023-07-29T00:03:56;3.20;;;1.25;;
20657;SDS011;10488;50.846;4.078;2023-07-29T00:06:21;1.20;;;1.10;;
20657;SDS011;10488;50.846;4.078;2023-07-29T00:08:47;2.75;;;1.10;;
20657;SDS011;10488;50.846;4.078;2023-07-29T00:11:13;1.38;;;1.27;;
20657;SDS011;10488;50.846;4.078;2023-07-29T00:13:38;1.92;;;1.38;;
20657;SDS011;10488;50.846;4.078;2023-07-29T00:16:04;2.78;;;1.17;;
20657;SDS011;10488;50.846;4.078;2023-07-29T00:18:29;7.38;;;1.50;;
20657;SDS011;10488;50.846;4.078;2023-07-29T00:20:56;1.40;;;1.30;;
20657;SDS011;10488;50.846;4.078;2023-07-29T00:23:22;2.13;;;1.50;;
20657;SDS011;10488;50.846;4.078;2023-07-29T00:25:48;4.55;;;1.70;;
20657;SDS011;10488;50.846;4.078;2023-07-29T00:28:13;2.88;;;1.45;;
20657;SDS011;10488;50.846;4.078;2023-07-29T00:30:39;3.53;;;1.40;;
20657;SDS011;10488;50.846;4.078;2023-07-29T00:33:05;5.00;;;1.50;;
20657;SDS011;10488;50.846;4.078;2023-07-29T00:35:30;2.63;;;1.52;;
20657;SDS011;10488;50.846;4.078;2023-07-29T00:37:56;3.67;;;1.77;;
20657;SDS011;10488;50.846;4.078;2023-07-29T00:40:22;2.40;;;1.50;;
20657;SDS011;10488;50.846;4.078;2023-07-29T00:42:48;2.50;;;1.23;;
20657;SDS011;10488;50.846;4.078;2023-07-29T00:45:15;2.55;;;1.50;;
20657;SDS011;10488;50.846;4.078;2023-07-29T00:47:41;1.63;;;1.30;;
20657;SDS011;10488;50.846;4.078;2023-07-29T00:50:09;2.05;;;1.40;;
20657;SDS011;10488;50.846;4.078;2023-07-29T00:52:36;2.40;;;1.60;;
20657;SDS011;10488;50.846;4.078;2023-07-29T00:55:02;1.92;;;1.50;;
20657;SDS011;10488;50.846;4.078;2023-07-29T00:57:29;2.83;;;1.60;;
20657;SDS011;10488;50.846;4.078;2023-07-29T00:59:55;1.98;;;1.75;;
20657;SDS011;10488;50.846;4.078;2023-07-29T01:02:21;2.92;;;1.50;;
20657;SDS011;10488;50.846;4.078;2023-07-29T01:04:57;2.60;;;1.42;;
20657;SDS011;10488;50.846;4.078;2023-07-29T01:07:27;1.85;;;1.38;;
20657;SDS011;10488;50.846;4.078;2023-07-29T01:12:36;2.42;;;1.30;;
20657;SDS011;10488;50.846;4.078;2023-07-29T01:15:19;1.73;;;1.52;;
20657;SDS011;10488;50.846;4.078;2023-07-29T01:18:02;4.40;;;1.63;;
20657;SDS011;10488;50.846;4.078;2023-07-29T01:20:32;2.28;;;1.60;;
20657;SDS011;10488;50.846;4.078;2023-07-29T01:22:59;2.75;;;1.60;;
20657;SDS011;10488;50.846;4.078;2023-07-29T01:25:25;7.53;;;1.88;;
20657;SDS011;10488;50.846;4.078;2023-07-29T01:27:51;6.00;;;2.13;;
20657;SDS011;10488;50.846;4.078;2023-07-29T01:30:18;2.15;;;1.80;;
20657;SDS011;10488;50.846;4.078;2023-07-29T01:32:59;4.38;;;1.40;;
20657;SDS011;10488;50.846;4.078;2023-07-29T01:35:36;2.65;;;1.73;;
20657;SDS011;10488;50.846;4.078;2023-07-29T01:38:16;3.97;;;1.85;;
20657;SDS011;10488;50.846;4.078;2023-07-29T01:40:49;1.65;;;1.50;;
20657;SDS011;10488;50.846;4.078;2023-07-29T01:43:16;2.95;;;2.13;;
20657;SDS011;10488;50.846;4.078;2023-07-29T01:45:43;1.63;;;1.27;;
20657;SDS011;10488;50.846;4.078;2023-07-29T01:48:09;2.75;;;1.60;;
20657;SDS011;10488;50.846;4.078;2023-07-29T01:50:35;2.70;;;1.65;;
20657;SDS011;10488;50.846;4.078;2023-07-29T01:53:00;3.42;;;1.75;;
20657;SDS011;10488;50.846;4.078;2023-07-29T01:55:28;2.30;;;1.65;;
20657;SDS011;10488;50.846;4.078;2023-07-29T01:57:54;3.28;;;2.05;;
20657;SDS011;10488;50.846;4.078;2023-07-29T02:00:20;3.92;;;1.60;;
20657;SDS011;10488;50.846;4.078;2023-07-29T02:02:46;4.72;;;1.58;;
20657;SDS011;10488;50.846;4.078;2023-07-29T02:05:12;3.65;;;1.52;;
20657;SDS011;10488;50.846;4.078;2023-07-29T02:07:37;1.90;;;1.60;;
20657;SDS011;10488;50.846;4.078;2023-07-29T02:10:03;2.45;;;1.30;;
20657;SDS011;10488;50.846;4.078;2023-07-29T02:12:29;4.03;;;1.70;;
20657;SDS011;10488;50.846;4.078;2023-07-29T02:14:55;4.65;;;1.90;;
20657;SDS011;10488;50.846;4.078;2023-07-29T02:17:20;2.05;;;1.77;;
20657;SDS011;10488;50.846;4.078;2023-07-29T02:19:46;5.35;;;1.85;;
20657;SDS011;10488;50.846;4.078;2023-07-29T02:22:14;5.55;;;2.00;;
20657;SDS011;10488;50.846;4.078;2023-07-29T02:24:42;2.90;;;1.80;;
20657;SDS011;10488;50.846;4.078;2023-07-29T02:27:08;4.35;;;1.80;;
20657;SDS011;10488;50.846;4.078;2023-07-29T02:29:34;5.72;;;2.20;;
20657;SDS011;10488;50.846;4.078;2023-07-29T02:32:00;5.05;;;1.90;;
20657;SDS011;10488;50.846;4.078;2023-07-29T02:34:25;4.18;;;1.92;;
20657;SDS011;10488;50.846;4.078;2023-07-29T02:36:51;3.42;;;1.67;;
20657;SDS011;10488;50.846;4.078;2023-07-29T02:39:16;3.33;;;1.85;;
20657;SDS011;10488;50.846;4.078;2023-07-29T02:41:42;3.28;;;1.80;;
20657;SDS011;10488;50.846;4.078;2023-07-29T02:44:08;4.90;;;2.17;;
20657;SDS011;10488;50.846;4.078;2023-07-29T02:46:33;4.03;;;1.88;;
20657;SDS011;10488;50.846;4.078;2023-07-29T02:48:59;2.97;;;2.10;;
20657;SDS011;10488;50.846;4.078;2023-07-29T02:51:26;7.40;;;2.22;;
20657;SDS011;10488;50.846;4.078;2023-07-29T02:53:52;5.82;;;2.35;;
20657;SDS011;10488;50.846;4.078;2023-07-29T02:56:17;3.30;;;2.38;;
20657;SDS011;10488;50.846;4.078;2023-07-29T02:58:43;3.83;;;1.98;;
20657;SDS011;10488;50.846;4.078;2023-07-29T03:01:09;2.15;;;1.95;;
20657;SDS011;10488;50.846;4.078;2023-07-29T03:03:35;3.28;;;2.20;;
20657;SDS011;10488;50.846;4.078;2023-07-29T03:06:04;3.53;;;2.28;;
20657;SDS011;10488;50.846;4.078;2023-07-29T03:08:31;4.45;;;2.40;;
20657;SDS011;10488;50.846;4.078;2023-07-29T03:10:57;3.95;;;1.90;;
20657;SDS011;10488;50.846;4.078;2023-07-29T03:13:23;6.03;;;2.65;;
20657;SDS011;10488;50.846;4.078;2023-07-29T03:15:49;3.42;;;2.60;;
20657;SDS011;10488;50.846;4.078;2023-07-29T03:18:15;3.40;;;2.30;;
20657;SDS011;10488;50.846;4.078;2023-07-29T03:20:40;2.40;;;2.05;;
20657;SDS011;10488;50.846;4.078;2023-07-29T03:23:06;4.55;;;2.50;;
20657;SDS011;10488;50.846;4.078;2023-07-29T03:25:32;8.13;;;2.80;;
20657;SDS011;10488;50.846;4.078;2023-07-29T03:27:58;4.38;;;3.10;;
20657;SDS011;10488;50.846;4.078;2023-07-29T03:30:24;4.30;;;2.75;;
20657;SDS011;10488;50.846;4.078;2023-07-29T03:32:49;3.20;;;2.42;;
20657;SDS011;10488;50.846;4.078;2023-07-29T03:35:15;4.28;;;2.72;;
20657;SDS011;10488;50.846;4.078;2023-07-29T03:37:41;3.72;;;2.63;;
20657;SDS011;10488;50.846;4.078;2023-07-29T03:40:07;5.97;;;2.72;;
20657;SDS011;10488;50.846;4.078;2023-07-29T03:42:34;5.75;;;3.35;;
20657;SDS011;10488;50.846;4.078;2023-07-29T03:45:00;5.45;;;2.40;;
20657;SDS011;10488;50.846;4.078;2023-07-29T03:47:26;5.38;;;2.75;;
20657;SDS011;10488;50.846;4.078;2023-07-29T03:49:52;2.67;;;2.28;;
20657;SDS011;10488;50.846;4.078;2023-07-29T03:52:18;8.05;;;2.60;;
20657;SDS011;10488;50.846;4.078;2023-07-29T03:54:43;3.60;;;2.90;;
20657;SDS011;10488;50.846;4.078;2023-07-29T03:57:09;6.13;;;2.58;;
20657;SDS011;10488;50.846;4.078;2023-07-29T03:59:35;4.50;;;2.60;;
20657;SDS011;10488;50.846;4.078;2023-07-29T04:02:00;8.10;;;3.00;;
20657;SDS011;10488;50.846;4.078;2023-07-29T04:04:26;3.20;;;2.30;;
20657;SDS011;10488;50.846;4.078;2023-07-29T04:06:52;4.07;;;2.30;;
20657;SDS011;10488;50.846;4.078;2023-07-29T04:09:17;3.78;;;2.13;;
20657;SDS011;10488;50.846;4.078;2023-07-29T04:11:43;4.95;;;3.03;;
20657;SDS011;10488;50.846;4.078;2023-07-29T04:14:09;3.40;;;2.40;;
20657;SDS011;10488;50.846;4.078;2023-07-29T04:16:34;2.97;;;2.30;;
20657;SDS011;10488;50.846;4.078;2023-07-29T04:19:00;6.90;;;2.17;;
20657;SDS011;10488;50.846;4.078;2023-07-29T04:21:25;6.68;;;2.17;;
20657;SDS011;10488;50.846;4.078;2023-07-29T04:23:51;2.60;;;1.88;;
20657;SDS011;10488;50.846;4.078;2023-07-29T04:26:17;3.80;;;2.30;;
20657;SDS011;10488;50.846;4.078;2023-07-29T04:28:42;3.83;;;2.10;;
20657;SDS011;10488;50.846;4.078;2023-07-29T04:31:08;4.32;;;2.22;;
20657;SDS011;10488;50.846;4.078;2023-07-29T04:33:34;3.88;;;2.38;;
20657;SDS011;10488;50.846;4.078;2023-07-29T04:35:59;9.25;;;2.42;;
20657;SDS011;10488;50.846;4.078;2023-07-29T04:38:29;4.57;;;2.35;;
20657;SDS011;10488;50.846;4.078;2023-07-29T04:40:57;3.25;;;2.15;;
20657;SDS011;10488;50.846;4.078;2023-07-29T04:43:26;3.40;;;2.40;;
20657;SDS011;10488;50.846;4.078;2023-07-29T04:45:53;4.20;;;2.30;;
20657;SDS011;10488;50.846;4.078;2023-07-29T04:48:19;6.97;;;2.15;;
20657;SDS011;10488;50.846;4.078;2023-07-29T04:50:45;4.05;;;2.20;;
20657;SDS011;10488;50.846;4.078;2023-07-29T04:53:11;4.85;;;2.15;;
20657;SDS011;10488;50.846;4.078;2023-07-29T04:55:36;4.20;;;1.77;;
20657;SDS011;10488;50.846;4.078;2023-07-29T04:58:02;3.83;;;2.10;;
20657;SDS011;10488;50.846;4.078;2023-07-29T05:00:27;3.72;;;2.30;;
20657;SDS011;10488;50.846;4.078;2023-07-29T05:02:53;4.95;;;2.05;;
20657;SDS011;10488;50.846;4.078;2023-07-29T05:05:19;2.80;;;2.10;;
20657;SDS011;10488;50.846;4.078;2023-07-29T05:07:44;4.07;;;2.00;;
20657;SDS011;10488;50.846;4.078;2023-07-29T05:10:10;3.60;;;2.05;;
20657;SDS011;10488;50.846;4.078;2023-07-29T05:12:36;4.03;;;1.98;;
20657;SDS011;10488;50.846;4.078;2023-07-29T05:15:02;2.00;;;1.75;;
20657;SDS011;10488;50.846;4.078;2023-07-29T05:17:27;2.78;;;2.00;;
20657;SDS011;10488;50.846;4.078;2023-07-29T05:19:53;6.18;;;2.03;;
20657;SDS011;10488;50.846;4.078;2023-07-29T05:22:19;3.20;;;2.00;;
20657;SDS011;10488;50.846;4.078;2023-07-29T05:24:44;5.05;;;1.92;;
20657;SDS011;10488;50.846;4.078;2023-07-29T05:27:10;4.50;;;2.20;;
20657;SDS011;10488;50.846;4.078;2023-07-29T05:29:36;7.82;;;2.03;;
20657;SDS011;10488;50.846;4.078;2023-07-29T05:32:01;3.53;;;1.67;;
20657;SDS011;10488;50.846;4.078;2023-07-29T05:34:27;3.80;;;1.95;;
20657;SDS011;10488;50.846;4.078;2023-07-29T05:36:53;5.50;;;1.85;;
20657;SDS011;10488;50.846;4.078;2023-07-29T05:39:18;3.83;;;2.42;;
20657;SDS011;10488;50.846;4.078;2023-07-29T05:41:44;3.80;;;1.92;;
20657;SDS011;10488;50.846;4.078;2023-07-29T05:44:10;4.68;;;1.60;;
20657;SDS011;10488;50.846;4.078;2023-07-29T05:46:36;3.92;;;2.13;;
20657;SDS011;10488;50.846;4.078;2023-07-29T05:49:02;2.95;;;2.20;;
20657;SDS011;10488;50.846;4.078;2023-07-29T05:51:28;3.05;;;1.60;;
20657;SDS011;10488;50.846;4.078;2023-07-29T05:53:53;4.82;;;1.70;;
20657;SDS011;10488;50.846;4.078;2023-07-29T05:56:19;4.20;;;2.00;;
20657;SDS011;10488;50.846;4.078;2023-07-29T05:58:44;1.60;;;1.25;;
20657;SDS011;10488;50.846;4.078;2023-07-29T06:01:10;3.72;;;1.60;;
20657;SDS011;10488;50.846;4.078;2023-07-29T06:03:36;1.65;;;1.27;;
20657;SDS011;10488;50.846;4.078;2023-07-29T06:06:01;1.15;;;0.77;;
20657;SDS011;10488;50.846;4.078;2023-07-29T06:08:27;3.33;;;1.20;;
20657;SDS011;10488;50.846;4.078;2023-07-29T06:10:54;0.95;;;0.93;;
20657;SDS011;10488;50.846;4.078;2023-07-29T06:13:19;2.17;;;1.10;;
20657;SDS011;10488;50.846;4.078;2023-07-29T06:15:45;2.65;;;1.45;;
20657;SDS011;10488;50.846;4.078;2023-07-29T06:18:11;1.55;;;0.90;;
20657;SDS011;10488;50.846;4.078;2023-07-29T06:20:36;2.40;;;1.20;;
20657;SDS011;10488;50.846;4.078;2023-07-29T06:23:02;2.95;;;1.17;;
20657;SDS011;10488;50.846;4.078;2023-07-29T06:25:28;3.42;;;0.93;;
20657;SDS011;10488;50.846;4.078;2023-07-29T06:27:54;0.93;;;0.88;;
20657;SDS011;10488;50.846;4.078;2023-07-29T06:30:19;1.35;;;0.80;;
20657;SDS011;10488;50.846;4.078;2023-07-29T06:32:45;1.60;;;0.98;;
20657;SDS011;10488;50.846;4.078;2023-07-29T06:35:11;3.28;;;0.90;;
20657;SDS011;10488;50.846;4.078;2023-07-29T06:37:36;2.08;;;1.15;;
20657;SDS011;10488;50.846;4.078;2023-07-29T06:40:02;2.03;;;0.93;;
20657;SDS011;10488;50.846;4.078;2023-07-29T06:42:28;3.15;;;1.05;;
20657;SDS011;10488;50.846;4.078;2023-07-29T06:44:54;2.17;;;1.73;;
20657;SDS011;10488;50.846;4.078;2023-07-29T06:47:19;2.70;;;0.98;;
20657;SDS011;10488;50.846;4.078;2023-07-29T06:49:45;0.77;;;0.75;;
20657;SDS011;10488;50.846;4.078;2023-07-29T06:52:11;3.63;;;0.98;;
20657;SDS011;10488;50.846;4.078;2023-07-29T06:54:37;1.52;;;0.95;;
20657;SDS011;10488;50.846;4.078;2023-07-29T06:57:02;2.22;;;0.90;;
20657;SDS011;10488;50.846;4.078;2023-07-29T06:59:28;1.13;;;0.75;;
20657;SDS011;10488;50.846;4.078;2023-07-29T07:01:54;1.75;;;0.90;;
20657;SDS011;10488;50.846;4.078;2023-07-29T07:04:20;1.60;;;0.93;;
20657;SDS011;10488;50.846;4.078;2023-07-29T07:06:45;2.97;;;1.15;;
20657;SDS011;10488;50.846;4.078;2023-07-29T07:09:11;1.95;;;1.20;;
20657;SDS011;10488;50.846;4.078;2023-07-29T07:11:36;3.65;;;1.13;;
20657;SDS011;10488;50.846;4.078;2023-07-29T07:14:02;5.13;;;1.33;;
20657;SDS011;10488;50.846;4.078;2023-07-29T07:16:28;3.05;;;1.13;;
20657;SDS011;10488;50.846;4.078;2023-07-29T07:18:55;1.98;;;0.98;;
20657;SDS011;10488;50.846;4.078;2023-07-29T07:21:21;4.05;;;1.27;;
20657;SDS011;10488;50.846;4.078;2023-07-29T07:23:49;3.22;;;0.82;;
20657;SDS011;10488;50.846;4.078;2023-07-29T07:26:15;4.05;;;1.15;;
20657;SDS011;10488;50.846;4.078;2023-07-29T07:28:40;1.00;;;0.90;;
20657;SDS011;10488;50.846;4.078;2023-07-29T07:31:06;2.58;;;1.30;;
20657;SDS011;10488;50.846;4.078;2023-07-29T07:33:32;1.63;;;0.82;;
20657;SDS011;10488;50.846;4.078;2023-07-29T07:35:57;1.42;;;1.05;;
20657;SDS011;10488;50.846;4.078;2023-07-29T07:38:23;5.13;;;1.27;;
20657;SDS011;10488;50.846;4.078;2023-07-29T07:40:52;3.13;;;1.00;;
20657;SDS011;10488;50.846;4.078;2023-07-29T07:43:20;2.25;;;0.90;;
20657;SDS011;10488;50.846;4.078;2023-07-29T07:45:45;0.60;;;0.52;;
20657;SDS011;10488;50.846;4.078;2023-07-29T07:48:11;2.53;;;1.33;;
20657;SDS011;10488;50.846;4.078;2023-07-29T07:50:38;1.42;;;0.68;;
20657;SDS011;10488;50.846;4.078;2023-07-29T07:53:04;0.95;;;0.88;;
20657;SDS011;10488;50.846;4.078;2023-07-29T07:55:29;4.32;;;0.77;;
20657;SDS011;10488;50.846;4.078;2023-07-29T07:57:55;1.38;;;1.15;;
20657;SDS011;10488;50.846;4.078;2023-07-29T08:00:21;1.38;;;0.80;;
20657;SDS011;10488;50.846;4.078;2023-07-29T08:02:46;2.10;;;0.75;;
20657;SDS011;10488;50.846;4.078;2023-07-29T08:05:12;2.08;;;0.90;;
20657;SDS011;10488;50.846;4.078;2023-07-29T08:07:38;1.60;;;0.60;;
20657;SDS011;10488;50.846;4.078;2023-07-29T08:10:03;2.22;;;0.75;;
20657;SDS011;10488;50.846;4.078;2023-07-29T08:12:29;1.10;;;0.85;;
20657;SDS011;10488;50.846;4.078;2023-07-29T08:14:55;1.60;;;0.70;;
20657;SDS011;10488;50.846;4.078;2023-07-29T08:17:21;1.70;;;0.60;;
20657;SDS011;10488;50.846;4.078;2023-07-29T08:19:46;0.88;;;0.82;;
20657;SDS011;10488;50.846;4.078;2023-07-29T08:22:12;1.40;;;0.95;;
20657;SDS011;10488;50.846;4.078;2023-07-29T08:24:38;1.48;;;0.63;;
20657;SDS011;10488;50.846;4.078;2023-07-29T08:27:03;1.48;;;0.60;;
20657;SDS011;10488;50.846;4.078;2023-07-29T08:29:29;2.85;;;0.80;;
20657;SDS011;10488;50.846;4.078;2023-07-29T08:31:55;3.80;;;0.70;;
20657;SDS011;10488;50.846;4.078;2023-07-29T08:34:20;2.28;;;0.70;;
20657;SDS011;10488;50.846;4.078;2023-07-29T08:36:46;1.10;;;0.73;;
20657;SDS011;10488;50.846;4.078;2023-07-29T08:39:12;2.75;;;0.70;;
20657;SDS011;10488;50.846;4.078;2023-07-29T08:41:40;3.80;;;0.85;;
20657;SDS011;10488;50.846;4.078;2023-07-29T08:44:17;2.55;;;0.90;;
20657;SDS011;10488;50.846;4.078;2023-07-29T08:46:47;4.05;;;1.20;;
20657;SDS011;10488;50.846;4.078;2023-07-29T08:49:13;0.93;;;0.70;;
20657;SDS011;10488;50.846;4.078;2023-07-29T08:51:41;5.68;;;0.90;;
20657;SDS011;10488;50.846;4.078;2023-07-29T08:54:08;2.90;;;0.70;;
20657;SDS011;10488;50.846;4.078;2023-07-29T08:56:35;4.93;;;1.02;;
20657;SDS011;10488;50.846;4.078;2023-07-29T08:59:01;1.42;;;0.63;;
20657;SDS011;10488;50.846;4.078;2023-07-29T09:01:29;3.28;;;0.95;;
20657;SDS011;10488;50.846;4.078;2023-07-29T09:03:55;1.98;;;0.77;;
20657;SDS011;10488;50.846;4.078;2023-07-29T09:06:21;0.73;;;0.73;;
20657;SDS011;10488;50.846;4.078;2023-07-29T09:08:49;1.73;;;0.65;;
20657;SDS011;10488;50.846;4.078;2023-07-29T09:11:15;3.10;;;1.10;;
20657;SDS011;10488;50.846;4.078;2023-07-29T09:13:42;1.90;;;0.90;;
20657;SDS011;10488;50.846;4.078;2023-07-29T09:16:08;1.50;;;0.60;;
20657;SDS011;10488;50.846;4.078;2023-07-29T09:18:34;4.15;;;1.13;;
20657;SDS011;10488;50.846;4.078;2023-07-29T09:21:00;3.53;;;0.82;;
20657;SDS011;10488;50.846;4.078;2023-07-29T09:23:27;3.17;;;1.08;;
20657;SDS011;10488;50.846;4.078;2023-07-29T09:26:00;1.23;;;1.00;;
20657;SDS011;10488;50.846;4.078;2023-07-29T09:28:27;8.90;;;1.42;;
20657;SDS011;10488;50.846;4.078;2023-07-29T09:31:01;4.30;;;1.73;;
20657;SDS011;10488;50.846;4.078;2023-07-29T09:33:28;3.80;;;1.08;;
20657;SDS011;10488;50.846;4.078;2023-07-29T09:35:54;2.47;;;1.20;;
20657;SDS011;10488;50.846;4.078;2023-07-29T09:38:25;17.45;;;2.38;;
20657;SDS011;10488;50.846;4.078;2023-07-29T09:40:54;3.60;;;1.10;;
20657;SDS011;10488;50.846;4.078;2023-07-29T09:43:26;4.13;;;1.10;;
20657;SDS011;10488;50.846;4.078;2023-07-29T09:45:54;3.75;;;1.10;;
20657;SDS011;10488;50.846;4.078;2023-07-29T09:48:23;0.95;;;0.88;;
20657;SDS011;10488;50.846;4.078;2023-07-29T09:50:49;1.00;;;0.90;;
20657;SDS011;10488;50.846;4.078;2023-07-29T09:53:14;1.27;;;1.00;;
20657;SDS011;10488;50.846;4.078;2023-07-29T09:55:45;4.93;;;1.20;;
20657;SDS011;10488;50.846;4.078;2023-07-29T09:58:12;1.90;;;1.20;;
20657;SDS011;10488;50.846;4.078;2023-07-29T10:00:38;2.78;;;1.13;;
20657;SDS011;10488;50.846;4.078;2023-07-29T10:03:05;1.58;;;1.17;;
20657;SDS011;10488;50.846;4.078;2023-07-29T10:05:31;1.17;;;1.00;;
20657;SDS011;10488;50.846;4.078;2023-07-29T10:07:59;5.50;;;1.20;;
20657;SDS011;10488;50.846;4.078;2023-07-29T10:10:26;2.63;;;1.25;;
20657;SDS011;10488;50.846;4.078;2023-07-29T10:12:53;2.65;;;1.00;;
20657;SDS011;10488;50.846;4.078;2023-07-29T10:15:19;1.48;;;1.00;;
20657;SDS011;10488;50.846;4.078;2023-07-29T10:17:46;2.40;;;1.15;;
20657;SDS011;10488;50.846;4.078;2023-07-29T10:20:11;1.00;;;0.90;;
20657;SDS011;10488;50.846;4.078;2023-07-29T10:22:38;1.90;;;1.20;;
20657;SDS011;10488;50.846;4.078;2023-07-29T10:25:38;1.10;;;1.00;;
20657;SDS011;10488;50.846;4.078;2023-07-29T10:28:07;3.58;;;1.27;;
20657;SDS011;10488;50.846;4.078;2023-07-29T10:30:36;0.75;;;0.75;;
20657;SDS011;10488;50.846;4.078;2023-07-29T10:33:03;2.90;;;1.10;;
20657;SDS011;10488;50.846;4.078;2023-07-29T10:35:34;1.55;;;0.80;;
20657;SDS011;10488;50.846;4.078;2023-07-29T10:38:00;6.03;;;1.40;;
20657;SDS011;10488;50.846;4.078;2023-07-29T10:40:28;2.95;;;1.33;;
20657;SDS011;10488;50.846;4.078;2023-07-29T10:43:11;2.25;;;1.02;;
20657;SDS011;10488;50.846;4.078;2023-07-29T10:45:40;3.13;;;1.60;;
20657;SDS011;10488;50.846;4.078;2023-07-29T10:48:10;1.77;;;1.00;;
20657;SDS011;10488;50.846;4.078;2023-07-29T10:50:37;2.22;;;1.13;;
20657;SDS011;10488;50.846;4.078;2023-07-29T10:53:02;2.15;;;0.88;;
20657;SDS011;10488;50.846;4.078;2023-07-29T10:55:29;11.48;;;1.98;;
20657;SDS011;10488;50.846;4.078;2023-07-29T11:00:42;2.42;;;0.70;;
20657;SDS011;10488;50.846;4.078;2023-07-29T11:03:08;4.00;;;0.88;;
20657;SDS011;10488;50.846;4.078;2023-07-29T11:05:42;2.95;;;0.80;;
20657;SDS011;10488;50.846;4.078;2023-07-29T11:11:00;4.28;;;1.25;;
20657;SDS011;10488;50.846;4.078;2023-07-29T11:13:37;1.20;;;0.90;;
20657;SDS011;10488;50.846;4.078;2023-07-29T11:16:03;2.80;;;1.30;;
20657;SDS011;10488;50.846;4.078;2023-07-29T11:18:36;2.67;;;1.00;;
20657;SDS011;10488;50.846;4.078;2023-07-29T11:21:02;2.15;;;1.20;;
20657;SDS011;10488;50.846;4.078;2023-07-29T11:23:34;2.67;;;1.02;;
20657;SDS011;10488;50.846;4.078;2023-07-29T11:26:01;1.23;;;1.13;;
20657;SDS011;10488;50.846;4.078;2023-07-29T11:28:28;4.43;;;1.10;;
20657;SDS011;10488;50.846;4.078;2023-07-29T11:30:54;2.08;;;1.30;;
20657;SDS011;10488;50.846;4.078;2023-07-29T11:33:22;1.77;;;1.65;;
20657;SDS011;10488;50.846;4.078;2023-07-29T11:35:53;1.85;;;1.60;;
20657;SDS011;10488;50.846;4.078;2023-07-29T11:38:20;3.58;;;2.00;;
20657;SDS011;10488;50.846;4.078;2023-07-29T11:40:59;2.22;;;1.70;;
20657;SDS011;10488;50.846;4.078;2023-07-29T11:43:25;5.13;;;1.65;;
20657;SDS011;10488;50.846;4.078;2023-07-29T11:45:52;1.50;;;1.40;;
20657;SDS011;10488;50.846;4.078;2023-07-29T11:48:18;1.73;;;1.40;;
20657;SDS011;10488;50.846;4.078;2023-07-29T11:50:52;4.07;;;1.52;;
20657;SDS011;10488;50.846;4.078;2023-07-29T11:53:19;3.40;;;1.30;;
20657;SDS011;10488;50.846;4.078;2023-07-29T11:55:49;1.70;;;1.60;;
20657;SDS011;10488;50.846;4.078;2023-07-29T11:58:17;2.20;;;1.30;;
20657;SDS011;10488;50.846;4.078;2023-07-29T12:00:43;2.15;;;1.45;;
20657;SDS011;10488;50.846;4.078;2023-07-29T12:03:09;1.85;;;1.60;;
20657;SDS011;10488;50.846;4.078;2023-07-29T12:05:36;2.95;;;1.60;;
20657;SDS011;10488;50.846;4.078;2023-07-29T12:08:01;1.92;;;1.50;;
20657;SDS011;10488;50.846;4.078;2023-07-29T12:10:27;1.55;;;1.25;;
20657;SDS011;10488;50.846;4.078;2023-07-29T12:12:53;1.90;;;1.40;;
20657;SDS011;10488;50.846;4.078;2023-07-29T12:15:23;1.45;;;1.35;;
20657;SDS011;10488;50.846;4.078;2023-07-29T12:17:54;1.75;;;1.45;;
20657;SDS011;10488;50.846;4.078;2023-07-29T12:20:22;1.33;;;1.23;;
20657;SDS011;10488;50.846;4.078;2023-07-29T12:22:53;3.95;;;1.70;;
20657;SDS011;10488;50.846;4.078;2023-07-29T12:25:19;3.72;;;1.63;;
20657;SDS011;10488;50.846;4.078;2023-07-29T12:27:45;1.13;;;1.10;;
20657;SDS011;10488;50.846;4.078;2023-07-29T12:30:12;1.38;;;1.27;;
20657;SDS011;10488;50.846;4.078;2023-07-29T12:32:44;1.40;;;1.30;;
20657;SDS011;10488;50.846;4.078;2023-07-29T12:35:11;1.33;;;1.20;;
20657;SDS011;10488;50.846;4.078;2023-07-29T12:37:37;0.95;;;0.95;;
20657;SDS011;10488;50.846;4.078;2023-07-29T12:40:04;0.90;;;0.90;;
20657;SDS011;10488;50.846;4.078;2023-07-29T12:42:30;1.20;;;1.00;;
20657;SDS011;10488;50.846;4.078;2023-07-29T12:44:55;1.95;;;0.80;;
20657;SDS011;10488;50.846;4.078;2023-07-29T12:47:21;0.60;;;0.60;;
20657;SDS011;10488;50.846;4.078;2023-07-29T12:49:46;1.75;;;0.70;;
20657;SDS011;10488;50.846;4.078;2023-07-29T12:52:12;1.10;;;0.70;;
20657;SDS011;10488;50.846;4.078;2023-07-29T12:54:38;2.40;;;1.08;;
20657;SDS011;10488;50.846;4.078;2023-07-29T12:57:05;1.85;;;1.00;;
20657;SDS011;10488;50.846;4.078;2023-07-29T12:59:31;1.60;;;1.17;;
20657;SDS011;10488;50.846;4.078;2023-07-29T13:01:57;0.90;;;0.90;;
20657;SDS011;10488;50.846;4.078;2023-07-29T13:04:22;0.80;;;0.80;;
20657;SDS011;10488;50.846;4.078;2023-07-29T13:06:48;1.27;;;1.17;;
20657;SDS011;10488;50.846;4.078;2023-07-29T13:09:13;1.20;;;1.10;;
20657;SDS011;10488;50.846;4.078;2023-07-29T13:11:39;1.30;;;1.17;;
20657;SDS011;10488;50.846;4.078;2023-07-29T13:14:05;1.30;;;1.20;;
20657;SDS011;10488;50.846;4.078;2023-07-29T13:16:30;1.75;;;1.30;;
20657;SDS011;10488;50.846;4.078;2023-07-29T13:18:57;2.05;;;1.70;;
20657;SDS011;10488;50.846;4.078;2023-07-29T13:21:23;1.40;;;1.23;;
20657;SDS011;10488;50.846;4.078;2023-07-29T13:23:49;1.40;;;1.30;;
20657;SDS011;10488;50.846;4.078;2023-07-29T13:26:14;2.25;;;1.30;;
20657;SDS011;10488;50.846;4.078;2023-07-29T13:28:40;2.03;;;1.35;;
20657;SDS011;10488;50.846;4.078;2023-07-29T13:31:05;1.52;;;1.27;;
20657;SDS011;10488;50.846;4.078;2023-07-29T13:33:31;1.67;;;1.25;;
20657;SDS011;10488;50.846;4.078;2023-07-29T13:35:59;12.43;;;1.40;;
20657;SDS011;10488;50.846;4.078;2023-07-29T13:38:27;1.33;;;1.17;;
20657;SDS011;10488;50.846;4.078;2023-07-29T13:40:53;1.02;;;0.90;;
20657;SDS011;10488;50.846;4.078;2023-07-29T13:43:18;1.35;;;1.05;;
20657;SDS011;10488;50.846;4.078;2023-07-29T13:45:44;1.20;;;1.10;;
20657;SDS011;10488;50.846;4.078;2023-07-29T13:48:10;1.60;;;0.93;;
20657;SDS011;10488;50.846;4.078;2023-07-29T13:50:35;0.80;;;0.80;;
20657;SDS011;10488;50.846;4.078;2023-07-29T13:53:01;1.58;;;0.88;;
20657;SDS011;10488;50.846;4.078;2023-07-29T13:55:27;0.63;;;0.63;;
20657;SDS011;10488;50.846;4.078;2023-07-29T13:57:52;1.42;;;0.98;;
20657;SDS011;10488;50.846;4.078;2023-07-29T14:00:19;1.88;;;0.80;;
20657;SDS011;10488;50.846;4.078;2023-07-29T14:02:44;1.08;;;0.82;;
20657;SDS011;10488;50.846;4.078;2023-07-29T14:05:10;1.08;;;0.93;;
20657;SDS011;10488;50.846;4.078;2023-07-29T14:07:36;1.17;;;1.00;;
20657;SDS011;10488;50.846;4.078;2023-07-29T14:10:03;0.80;;;0.80;;
20657;SDS011;10488;50.846;4.078;2023-07-29T14:12:29;2.45;;;0.73;;
20657;SDS011;10488;50.846;4.078;2023-07-29T14:14:54;1.25;;;0.90;;
20657;SDS011;10488;50.846;4.078;2023-07-29T14:17:20;1.17;;;0.95;;
20657;SDS011;10488;50.846;4.078;2023-07-29T14:19:45;1.10;;;0.93;;
20657;SDS011;10488;50.846;4.078;2023-07-29T14:22:11;2.25;;;0.70;;
20657;SDS011;10488;50.846;4.078;2023-07-29T14:24:37;0.90;;;0.90;;
20657;SDS011;10488;50.846;4.078;2023-07-29T14:27:02;2.10;;;0.90;;
20657;SDS011;10488;50.846;4.078;2023-07-29T14:29:28;0.77;;;0.77;;
20657;SDS011;10488;50.846;4.078;2023-07-29T14:31:54;0.85;;;0.85;;
20657;SDS011;10488;50.846;4.078;2023-07-29T14:34:19;1.77;;;0.95;;
20657;SDS011;10488;50.846;4.078;2023-07-29T14:36:45;1.90;;;1.08;;
20657;SDS011;10488;50.846;4.078;2023-07-29T14:39:11;3.97;;;0.88;;
20657;SDS011;10488;50.846;4.078;2023-07-29T14:41:36;1.27;;;0.93;;
20657;SDS011;10488;50.846;4.078;2023-07-29T14:44:02;1.75;;;0.98;;
20657;SDS011;10488;50.846;4.078;2023-07-29T14:46:27;2.45;;;1.02;;
20657;SDS011;10488;50.846;4.078;2023-07-29T14:48:53;3.15;;;1.00;;
20657;SDS011;10488;50.846;4.078;2023-07-29T14:51:19;2.05;;;1.08;;
20657;SDS011;10488;50.846;4.078;2023-07-29T14:53:44;1.30;;;1.20;;